Time;durP1;ratioP1;P1;durP2;ratioP2;P2;SDS_P1;SDS_P2;PMS_P1;PMS_P2;Temp;Humidity;BMP_temperature;BMP_pressure;BME280_temperature;BME280_humidity;BME280_pressure;Samples;Min_cycle;Max_cycle;Signal;HPM_P1;HPM_P2
2023/08/26 00:00:36;;;;;;;7.13;6.40;;;;;;;23.69;100.00;101183.34;2115153;28;20170;-65
2023/08/26 00:01:36;;;;;;;7.90;5.80;;;;;;;23.64;100.00;101187.69;2114854;28;20170;-65
2023/08/26 00:02:36;;;;;;;7.63;6.00;;;;;;;23.59;100.00;101184.88;2114916;27;20193;-65
2023/08/26 00:03:37;;;;;;;7.57;6.10;;;;;;;23.61;100.00;101183.06;2114774;27;20196;-65
2023/08/26 00:04:37;;;;;;;6.03;5.43;;;;;;;23.65;100.00;101186.41;2117877;27;20211;-65
2023/08/26 00:05:37;;;;;;;7.40;5.80;;;;;;;23.67;100.00;101186.69;2119352;27;20464;-65
2023/08/26 00:06:38;;;;;;;6.23;5.63;;;;;;;23.67;100.00;101178.19;2116134;27;20174;-65
2023/08/26 00:07:38;;;;;;;7.40;6.40;;;;;;;23.70;100.00;101182.81;2122470;27;20547;-64
2023/08/26 00:08:39;;;;;;;7.57;5.43;;;;;;;23.69;100.00;101175.63;2115122;28;20185;-66
2023/08/26 00:09:39;;;;;;;6.67;5.80;;;;;;;23.67;100.00;101183.88;2122663;27;20174;-65
2023/08/26 00:10:40;;;;;;;7.77;5.43;;;;;;;23.64;100.00;101173.56;2116673;27;20265;-64
2023/08/26 00:11:41;;;;;;;8.27;6.00;;;;;;;23.65;100.00;101185.66;2114111;28;20190;-65
2023/08/26 00:12:43;;;;;;;6.97;6.27;;;;;;;23.60;100.00;101189.25;2119162;27;20185;-65
2023/08/26 00:13:43;;;;;;;10.27;6.40;;;;;;;23.51;100.00;101189.44;2119672;27;20269;-65
2023/08/26 00:14:46;;;;;;;9.77;6.77;;;;;;;23.53;100.00;101184.84;2114502;28;20666;-65
2023/08/26 00:15:46;;;;;;;8.13;6.60;;;;;;;23.54;100.00;101185.63;2114371;28;20261;-65
2023/08/26 00:16:47;;;;;;;9.43;6.73;;;;;;;23.56;100.00;101197.97;2114229;28;20181;-65
2023/08/26 00:17:47;;;;;;;7.97;6.93;;;;;;;23.55;100.00;101190.00;2115039;28;20707;-65
2023/08/26 00:18:49;;;;;;;8.77;6.70;;;;;;;23.53;100.00;101189.69;2114715;28;20667;-65
2023/08/26 00:19:50;;;;;;;8.20;7.23;;;;;;;23.51;100.00;101187.41;2114553;28;20339;-65
2023/08/26 00:20:52;;;;;;;9.37;7.23;;;;;;;23.50;100.00;101187.91;2114389;27;20189;-65
2023/08/26 00:21:52;;;;;;;9.30;6.90;;;;;;;23.51;100.00;101186.63;2119284;27;20188;-65
2023/08/26 00:22:52;;;;;;;8.57;7.27;;;;;;;23.49;100.00;101187.13;2123086;27;20201;-65
2023/08/26 00:23:53;;;;;;;7.83;6.83;;;;;;;23.43;100.00;101177.84;2120664;27;20201;-65
2023/08/26 00:24:53;;;;;;;8.63;6.63;;;;;;;23.51;100.00;101190.25;2114499;28;20253;-65
2023/08/26 00:25:54;;;;;;;7.50;6.57;;;;;;;23.51;100.00;101193.06;2114022;28;20198;-65
2023/08/26 00:26:54;;;;;;;8.97;6.63;;;;;;;23.53;100.00;101186.88;2114621;28;20193;-65
2023/08/26 00:27:55;;;;;;;8.40;6.77;;;;;;;23.55;100.00;101185.09;2114715;28;20660;-65
2023/08/26 00:28:56;;;;;;;8.27;6.23;;;;;;;23.55;100.00;101190.00;2114584;27;20201;-65
2023/08/26 00:29:56;;;;;;;7.30;6.37;;;;;;;23.56;100.00;101185.88;2119936;27;20443;-64
2023/08/26 00:30:59;;;;;;;9.37;6.57;;;;;;;23.55;100.00;101185.09;2119181;27;20214;-65
2023/08/26 00:32:00;;;;;;;7.50;6.70;;;;;;;23.56;100.00;101186.66;2114384;28;20574;-66
2023/08/26 00:33:00;;;;;;;7.77;6.70;;;;;;;23.57;100.00;101187.41;2114344;28;20175;-65
2023/08/26 00:34:03;;;;;;;7.97;6.60;;;;;;;;;;2114556;28;20174;-64
2023/08/26 00:35:04;;;;;;;8.23;6.60;;;;;;;23.47;100.00;101171.94;2114248;27;20235;-65
2023/08/26 00:36:04;;;;;;;8.50;6.70;;;;;;;23.45;100.00;101180.16;2114530;28;20258;-65
2023/08/26 00:37:05;;;;;;;7.03;6.17;;;;;;;23.45;100.00;101183.78;2114070;28;20247;-65
2023/08/26 00:38:05;;;;;;;6.97;6.20;;;;;;;23.48;100.00;101190.44;2118339;27;20260;-65
2023/08/26 00:39:05;;;;;;;7.77;6.67;;;;;;;23.47;100.00;101188.91;2117597;27;20569;-65
2023/08/26 00:40:06;;;;;;;7.20;6.50;;;;;;;23.48;100.00;101187.63;2116734;27;20659;-65
2023/08/26 00:41:07;;;;;;;7.93;7.13;;;;;;;23.48;100.00;101190.44;2119717;27;20845;-65
2023/08/26 00:42:07;;;;;;;9.93;6.87;;;;;;;23.48;100.00;101194.06;2114487;28;20530;-65
2023/08/26 00:43:08;;;;;;;8.90;6.60;;;;;;;23.46;100.00;101188.16;2114448;28;20205;-65
2023/08/26 00:44:09;;;;;;;7.20;6.43;;;;;;;23.47;100.00;101191.75;2114826;28;20577;-65
2023/08/26 00:45:09;;;;;;;8.47;6.57;;;;;;;23.46;100.00;101191.00;2114356;28;20194;-64
2023/08/26 00:46:10;;;;;;;9.43;6.50;;;;;;;23.38;100.00;101167.28;2114256;28;20247;-65
2023/08/26 00:47:10;;;;;;;7.97;6.60;;;;;;;23.46;100.00;101191.00;2114337;28;20201;-65
2023/08/26 00:48:12;;;;;;;7.70;6.90;;;;;;;23.48;100.00;101190.44;2114427;28;20210;-65
2023/08/26 00:49:12;;;;;;;9.03;7.30;;;;;;;23.47;100.00;101184.03;2114504;27;20190;-64
2023/08/26 00:50:13;;;;;;;9.60;6.67;;;;;;;23.51;100.00;101192.28;2114670;28;20174;-65
2023/08/26 00:51:14;;;;;;;7.80;7.00;;;;;;;23.45;100.00;101174.50;2114336;27;20650;-64
2023/08/26 00:52:15;;;;;;;10.80;6.67;;;;;;;23.49;100.00;101189.19;2114375;27;20171;-65
2023/08/26 00:53:16;;;;;;;8.20;6.10;;;;;;;23.44;100.00;101179.38;2114844;28;20170;-65
2023/08/26 00:54:17;;;;;;;7.03;6.33;;;;;;;23.53;100.00;101184.84;2114477;27;20268;-65
2023/08/26 00:55:17;;;;;;;7.67;6.40;;;;;;;23.53;100.00;101186.88;2114070;28;20209;-65
2023/08/26 00:56:18;;;;;;;7.73;6.47;;;;;;;23.52;100.00;101191.78;2113970;28;20204;-65
2023/08/26 00:57:18;;;;;;;7.77;6.00;;;;;;;23.48;100.00;101188.41;2114045;28;20223;-65
2023/08/26 00:58:20;;;;;;;7.30;6.50;;;;;;;23.42;100.00;101190.44;2114393;28;20214;-65
2023/08/26 00:59:20;;;;;;;8.77;6.50;;;;;;;23.43;100.00;101180.69;2116112;27;20647;-65
2023/08/26 01:00:22;;;;;;;7.50;6.27;;;;;;;23.45;100.00;101174.50;2121475;27;20558;-65
2023/08/26 01:01:24;;;;;;;6.70;6.00;;;;;;;23.43;100.00;101180.69;2116653;27;20174;-64
2023/08/26 01:02:24;;;;;;;7.80;6.07;;;;;;;23.46;100.00;101179.66;2114629;28;20674;-65
2023/08/26 01:03:25;;;;;;;8.03;6.57;;;;;;;23.23;100.00;101148.97;2114623;28;20555;-65
2023/08/26 01:04:26;;;;;;;8.00;6.70;;;;;;;23.11;100.00;101133.19;2120691;27;20633;-65
2023/08/26 01:05:26;;;;;;;8.53;6.50;;;;;;;23.45;100.00;101180.16;2122381;27;20230;-65
2023/08/26 01:06:27;;;;;;;7.90;6.50;;;;;;;23.47;100.00;101183.25;2118365;27;20650;-64
2023/08/26 01:07:28;;;;;;;8.63;6.43;;;;;;;23.16;100.00;101126.78;2117287;27;20268;-65
2023/08/26 01:08:30;;;;;;;9.40;6.73;;;;;;;23.52;100.00;101174.81;2122656;27;20595;-64
2023/08/26 01:09:31;;;;;;;8.37;6.40;;;;;;;23.37;100.00;101154.44;2117511;27;20678;-65
2023/08/26 01:10:59;;;;;;;8.47;6.70;;;;;;;23.44;100.00;101156.75;2114509;27;20568;-64
2023/08/26 01:12:31;;;;;;;7.83;6.40;;;;;;;23.52;100.00;101165.53;2119528;27;20205;-65
2023/08/26 01:14:04;;;;;;;7.20;6.50;;;;;;;23.52;100.00;101171.97;2114726;28;20201;-65
2023/08/26 01:15:09;;;;;;;8.73;6.20;;;;;;;23.49;100.00;101166.56;2099443;28;20202;-65
2023/08/26 01:16:12;;;;;;;7.40;6.60;;;;;;;23.49;100.00;101172.22;2113707;28;20178;-65
2023/08/26 01:17:14;;;;;;;7.33;6.53;;;;;;;23.47;100.00;101171.94;2114072;28;20174;-64
2023/08/26 01:18:15;;;;;;;8.80;6.40;;;;;;;23.46;100.00;101171.19;2113742;27;20567;-65
2023/08/26 01:19:38;;;;;;;7.50;6.80;;;;;;;23.42;100.00;101167.81;2122977;27;20261;-64
2023/08/26 01:20:39;;;;;;;7.63;6.17;;;;;;;23.43;100.00;101171.44;2113940;27;20188;-64
2023/08/26 01:21:43;;;;;;;7.17;6.47;;;;;;;22.92;100.00;101081.97;2114024;28;20279;-64
2023/08/26 01:22:45;;;;;;;6.97;6.27;;;;;;;23.43;100.00;101160.88;2114538;28;20635;-65
2023/08/26 01:23:46;;;;;;;7.10;6.33;;;;;;;23.37;100.00;101151.59;2114172;28;20196;-65
2023/08/26 01:24:48;;;;;;;8.87;6.80;;;;;;;23.36;100.00;101149.28;2114043;28;20189;-65
2023/08/26 01:25:48;;;;;;;7.67;6.00;;;;;;;23.50;100.00;101165.28;2113906;28;20214;-64
2023/08/26 01:26:50;;;;;;;7.83;6.40;;;;;;;23.50;100.00;101162.44;2114326;28;20194;-65
2023/08/26 01:27:50;;;;;;;7.23;5.77;;;;;;;23.52;100.00;101163.50;2113780;27;20186;-65
2023/08/26 01:28:50;;;;;;;8.33;6.37;;;;;;;23.53;100.00;101173.50;2116367;27;20186;-64
2023/08/26 01:29:51;;;;;;;8.27;6.47;;;;;;;23.51;100.00;101169.66;2120326;27;20673;-65
2023/08/26 01:30:53;;;;;;;7.30;6.10;;;;;;;23.52;100.00;101160.66;2114215;28;20178;-65
2023/08/26 01:32:24;;;;;;;6.90;6.30;;;;;;;23.53;100.00;101167.84;2114535;28;20209;-65
2023/08/26 01:33:29;;;;;;;11.10;6.20;;;;;;;23.52;100.00;101162.69;2117020;27;20253;-65
2023/08/26 01:34:33;;;;;;;7.97;6.40;;;;;;;23.47;100.00;101157.78;2122027;27;20182;-65
2023/08/26 01:35:39;;;;;;;7.43;6.63;;;;;;;23.10;100.00;101100.53;2120266;27;20178;-64
2023/08/26 01:36:44;;;;;;;7.27;5.93;;;;;;;23.53;100.00;101167.84;2114674;27;20184;-64
2023/08/26 01:37:46;;;;;;;9.70;6.47;;;;;;;23.51;100.00;101161.16;2121710;27;20238;-64
2023/08/26 01:38:47;;;;;;;8.00;6.33;;;;;;;23.50;100.00;101162.44;2122824;27;20177;-65
2023/08/26 01:39:50;;;;;;;8.77;6.27;;;;;;;22.74;100.00;101059.78;2113977;27;20186;-64
2023/08/26 01:40:56;;;;;;;7.70;6.20;;;;;;;23.39;100.00;101163.16;2113846;28;20186;-64
2023/08/26 01:42:00;;;;;;;7.67;5.97;;;;;;;23.33;100.00;101153.13;2114261;28;20220;-64
2023/08/26 01:43:06;;;;;;;7.17;6.10;;;;;;;23.28;100.00;101151.81;2120468;27;20677;-64
2023/08/26 01:44:06;;;;;;;8.40;5.87;;;;;;;23.23;100.00;101155.38;2116613;27;20224;-64
2023/08/26 01:45:08;;;;;;;7.43;5.90;;;;;;;23.28;100.00;101159.53;2113661;27;20188;-64
2023/08/26 01:46:08;;;;;;;9.07;5.97;;;;;;;23.23;100.00;101152.56;2114214;28;20197;-64
2023/08/26 01:47:09;;;;;;;7.63;5.97;;;;;;;23.18;100.00;101166.69;2114100;28;20229;-64
2023/08/26 01:48:09;;;;;;;6.53;5.77;;;;;;;23.13;100.00;101162.50;2113823;28;20297;-65
2023/08/26 01:49:10;;;;;;;7.30;6.30;;;;;;;23.15;100.00;101164.81;2113876;28;20295;-64
2023/08/26 01:50:10;;;;;;;8.50;6.50;;;;;;;23.12;100.00;101160.16;2114512;28;20174;-65
2023/08/26 01:51:12;;;;;;;7.50;6.73;;;;;;;23.11;100.00;101159.41;2114206;28;20661;-64
2023/08/26 01:52:13;;;;;;;7.53;6.30;;;;;;;23.10;100.00;101159.91;2114210;27;20194;-64
2023/08/26 01:53:13;;;;;;;7.83;6.23;;;;;;;23.09;100.00;101164.78;2114117;28;20647;-64
2023/08/26 01:54:14;;;;;;;7.80;7.00;;;;;;;23.07;100.00;101169.41;2113933;28;20686;-64
2023/08/26 01:55:14;;;;;;;7.47;6.43;;;;;;;22.64;100.00;101094.38;2113734;28;20601;-65
2023/08/26 01:56:14;;;;;;;7.90;6.30;;;;;;;23.07;100.00;101161.69;2113444;28;20565;-64
2023/08/26 01:57:16;;;;;;;8.47;6.80;;;;;;;23.02;100.00;101159.63;2113933;28;20185;-65
2023/08/26 01:58:16;;;;;;;8.17;6.23;;;;;;;22.92;100.00;101141.31;2113759;27;20162;-64
2023/08/26 01:59:16;;;;;;;8.53;6.37;;;;;;;23.05;100.00;101152.97;2113448;28;20736;-64
2023/08/26 02:00:17;;;;;;;8.57;6.67;;;;;;;23.06;100.00;101157.31;2120818;27;20753;-64
2023/08/26 02:01:18;;;;;;;11.73;7.00;;;;;;;23.08;100.00;101157.59;2115995;28;20319;-65
2023/08/26 02:02:19;;;;;;;9.40;6.13;;;;;;;23.08;100.00;101168.13;2119528;27;20210;-65
2023/08/26 02:03:20;;;;;;;8.00;6.17;;;;;;;23.11;100.00;101161.47;2118213;27;20219;-64
2023/08/26 02:04:21;;;;;;;7.83;6.23;;;;;;;22.64;100.00;101091.56;2113813;28;20194;-64
2023/08/26 02:05:21;;;;;;;8.03;6.60;;;;;;;23.10;100.00;101165.56;2113441;28;20170;-65
2023/08/26 02:06:22;;;;;;;9.60;6.33;;;;;;;23.13;100.00;101159.66;2113756;28;20179;-65
2023/08/26 02:07:22;;;;;;;8.33;6.80;;;;;;;23.12;100.00;101160.16;2114499;28;20182;-64
2023/08/26 02:08:22;;;;;;;6.93;6.23;;;;;;;23.11;100.00;101153.75;2121755;28;20243;-64
2023/08/26 02:09:23;;;;;;;7.10;6.40;;;;;;;23.14;100.00;101152.72;2115158;28;20190;-65
2023/08/26 02:10:23;;;;;;;8.20;6.63;;;;;;;23.13;100.00;101154.00;2113853;28;20264;-64
2023/08/26 02:11:23;;;;;;;10.17;7.07;;;;;;;23.16;100.00;101153.00;2114279;28;20273;-65
2023/08/26 02:12:24;;;;;;;8.57;7.17;;;;;;;23.15;100.00;101153.50;2114031;28;20197;-64
2023/08/26 02:13:25;;;;;;;8.27;6.47;;;;;;;23.15;100.00;101147.88;2113991;28;20657;-64
2023/08/26 02:14:25;;;;;;;7.90;6.73;;;;;;;23.08;100.00;101137.78;2114842;27;20226;-65
2023/08/26 02:15:26;;;;;;;7.53;6.70;;;;;;;23.11;100.00;101148.09;2121688;28;20178;-64
2023/08/26 02:16:26;;;;;;;7.23;6.50;;;;;;;23.11;100.00;101147.31;2114405;28;20170;-65
2023/08/26 02:17:27;;;;;;;10.87;7.03;;;;;;;23.13;100.00;101147.59;2113749;28;20198;-65
2023/08/26 02:18:27;;;;;;;10.60;6.90;;;;;;;23.12;100.00;101144.00;2114054;28;20179;-65
2023/08/26 02:19:28;;;;;;;7.27;6.57;;;;;;;23.13;100.00;101148.38;2113711;28;20190;-65
2023/08/26 02:20:28;;;;;;;8.40;7.50;;;;;;;23.13;100.00;101141.94;2117881;27;20201;-65
2023/08/26 02:21:29;;;;;;;9.97;7.60;;;;;;;22.97;100.00;101117.19;2119169;28;20201;-65
2023/08/26 02:22:29;;;;;;;11.27;7.50;;;;;;;23.14;100.00;101137.84;2113928;28;20235;-65
2023/08/26 02:23:29;;;;;;;11.23;6.97;;;;;;;23.14;100.00;101164.03;2113829;28;20202;-64
2023/08/26 02:24:31;;;;;;;12.03;7.30;;;;;;;23.13;100.00;101141.94;2114335;28;20186;-64
2023/08/26 02:25:31;;;;;;;9.00;7.10;;;;;;;22.83;100.00;101098.38;2113451;27;20213;-65
2023/08/26 02:26:31;;;;;;;7.90;7.10;;;;;;;23.14;100.00;101141.41;2113918;28;20621;-64
2023/08/26 02:27:32;;;;;;;10.10;7.13;;;;;;;23.11;100.00;101136.00;2119511;28;20735;-64
2023/08/26 02:28:32;;;;;;;9.80;6.70;;;;;;;22.04;100.00;100981.78;2126355;27;20712;-64
2023/08/26 02:29:33;;;;;;;10.07;7.67;;;;;;;23.00;100.00;101127.47;2123072;27;20641;-64
2023/08/26 02:30:34;;;;;;;11.37;6.97;;;;;;;23.06;100.00;101145.25;2113969;28;20638;-65
2023/08/26 02:31:34;;;;;;;9.63;7.03;;;;;;;22.78;100.00;101110.41;2113776;28;20701;-65
2023/08/26 02:32:35;;;;;;;10.40;7.10;;;;;;;23.04;100.00;101154.25;2114087;28;20623;-64
2023/08/26 02:33:35;;;;;;;8.93;6.90;;;;;;;22.99;100.00;101148.53;2122790;28;20186;-65
2023/08/26 02:34:37;;;;;;;11.27;7.00;;;;;;;23.01;100.00;101148.81;2121914;27;20272;-65
2023/08/26 02:35:37;;;;;;;11.30;7.30;;;;;;;22.44;100.00;101064.22;2115157;27;20197;-64
2023/08/26 02:36:37;;;;;;;12.33;7.33;;;;;;;22.94;100.00;101150.06;2119329;28;20190;-65
2023/08/26 02:37:38;;;;;;;10.97;6.97;;;;;;;22.91;100.00;101153.91;2117953;27;20563;-64
2023/08/26 02:38:39;;;;;;;8.90;7.33;;;;;;;22.89;100.00;101152.84;2119420;28;20196;-64
2023/08/26 02:39:40;;;;;;;8.90;6.30;;;;;;;22.82;100.00;101153.34;2113615;28;20602;-64
2023/08/26 02:40:40;;;;;;;8.17;6.77;;;;;;;22.83;100.00;101147.16;2120247;27;20190;-64
2023/08/26 02:41:40;;;;;;;8.60;6.27;;;;;;;22.82;100.00;101150.50;2113998;28;20539;-65
2023/08/26 02:42:41;;;;;;;7.00;5.83;;;;;;;22.82;100.00;101144.84;2113881;28;20190;-64
2023/08/26 02:43:41;;;;;;;8.33;6.80;;;;;;;22.83;100.00;101147.16;2113889;28;20190;-65
2023/08/26 02:44:41;;;;;;;9.93;6.77;;;;;;;22.80;100.00;101145.34;2113796;27;20269;-65
2023/08/26 02:45:42;;;;;;;8.43;6.47;;;;;;;22.80;100.00;101148.19;2113704;27;20970;-64
2023/08/26 02:46:42;;;;;;;9.80;6.87;;;;;;;22.47;100.00;101085.03;2113761;28;20273;-64
2023/08/26 02:47:43;;;;;;;8.30;6.80;;;;;;;22.86;100.00;101145.38;2113809;27;20568;-64
2023/08/26 02:48:43;;;;;;;8.53;6.77;;;;;;;22.86;100.00;101140.50;2114255;27;20190;-65
2023/08/26 02:49:44;;;;;;;9.20;7.57;;;;;;;22.82;100.00;101142.78;2123744;27;20193;-65
2023/08/26 02:50:44;;;;;;;11.77;7.03;;;;;;;22.88;100.00;101145.66;2115668;27;20193;-64
2023/08/26 02:51:44;;;;;;;8.23;6.67;;;;;;;22.88;100.00;101149.25;2115481;28;20254;-65
2023/08/26 02:52:45;;;;;;;9.73;7.00;;;;;;;22.86;100.00;101146.16;2115312;27;20194;-64
2023/08/26 02:53:45;;;;;;;12.30;7.63;;;;;;;22.86;100.00;101137.69;2115419;28;20212;-65
2023/08/26 02:54:46;;;;;;;9.30;7.13;;;;;;;22.87;100.00;101144.13;2115219;28;20194;-64
2023/08/26 02:55:46;;;;;;;9.07;7.40;;;;;;;22.83;100.00;101140.75;2114798;28;20178;-64
2023/08/26 02:56:46;;;;;;;9.63;7.07;;;;;;;22.78;100.00;101141.50;2116023;27;20178;-64
2023/08/26 02:57:47;;;;;;;8.60;7.67;;;;;;;22.49;100.00;101097.38;2122837;27;20629;-64
2023/08/26 02:58:47;;;;;;;8.30;7.03;;;;;;;22.60;100.00;101116.44;2124230;27;20652;-65
2023/08/26 02:59:49;;;;;;;8.17;6.97;;;;;;;22.69;100.00;101141.69;2123627;27;20659;-65
2023/08/26 03:00:50;;;;;;;8.20;6.43;;;;;;;22.35;100.00;101101.09;2117155;27;20198;-65
2023/08/26 03:02:02;;;;;;;8.73;7.17;;;;;;;22.67;100.00;101142.19;2115231;27;20186;-64
2023/08/26 03:03:02;;;;;;;10.07;7.43;;;;;;;22.59;100.00;101126.97;2115220;28;20194;-65
2023/08/26 03:04:04;;;;;;;8.67;7.03;;;;;;;22.64;100.00;101136.75;2115331;28;20194;-64
2023/08/26 03:05:04;;;;;;;9.10;7.03;;;;;;;22.63;100.00;101144.44;2118507;27;20687;-64
2023/08/26 03:06:04;;;;;;;9.10;6.90;;;;;;;22.51;100.00;101117.41;2121100;27;20553;-64
2023/08/26 03:07:05;;;;;;;11.97;6.80;;;;;;;22.27;100.00;101082.28;2115039;28;20179;-64
2023/08/26 03:08:06;;;;;;;10.40;6.90;;;;;;;22.61;100.00;101140.59;2115143;28;20298;-65
2023/08/26 03:09:06;;;;;;;9.97;7.70;;;;;;;22.59;100.00;101137.50;2115835;28;20247;-64
2023/08/26 03:10:07;;;;;;;9.20;7.47;;;;;;;22.47;100.00;101142.28;2115064;27;20278;-64
2023/08/26 03:11:09;;;;;;;8.73;7.67;;;;;;;22.46;100.00;101137.91;2128560;27;20189;-65
2023/08/26 03:12:10;;;;;;;10.10;7.57;;;;;;;22.44;100.00;101140.47;2121064;27;20276;-65
2023/08/26 03:13:10;;;;;;;8.20;7.20;;;;;;;22.22;100.00;101112.00;2115201;27;20643;-65
2023/08/26 03:14:11;;;;;;;9.13;8.23;;;;;;;22.41;100.00;101140.69;2114877;28;20229;-64
2023/08/26 03:15:11;;;;;;;10.73;8.20;;;;;;;22.37;100.00;101140.13;2115062;28;20174;-65
2023/08/26 03:16:12;;;;;;;10.43;7.40;;;;;;;22.33;100.00;101136.75;2115037;27;20262;-65
2023/08/26 03:17:12;;;;;;;11.33;7.87;;;;;;;22.22;100.00;101128.19;2123288;27;20216;-65
2023/08/26 03:18:13;;;;;;;9.50;7.83;;;;;;;22.33;100.00;101139.56;2123666;27;20208;-65
2023/08/26 03:19:13;;;;;;;10.10;8.27;;;;;;;22.35;100.00;101143.44;2122851;27;20221;-64
2023/08/26 03:20:13;;;;;;;8.40;7.47;;;;;;;22.40;100.00;101137.06;2123409;27;20388;-64
2023/08/26 03:21:14;;;;;;;10.73;7.83;;;;;;;22.43;100.00;101146.59;2118456;27;20206;-64
2023/08/26 03:22:15;;;;;;;10.30;7.37;;;;;;;21.81;100.00;101050.59;2119006;27;20217;-65
2023/08/26 03:23:15;;;;;;;11.07;7.83;;;;;;;22.45;100.00;101144.84;2120889;27;20638;-64
2023/08/26 03:24:18;;;;;;;8.13;7.33;;;;;;;22.46;100.00;101140.75;2114997;28;20711;-65
2023/08/26 03:25:19;;;;;;;9.40;7.33;;;;;;;22.12;100.00;101095.78;2114622;28;20683;-64
2023/08/26 03:26:19;;;;;;;8.53;7.03;;;;;;;22.46;100.00;101142.81;2115409;28;20554;-64
2023/08/26 03:27:19;;;;;;;8.27;7.10;;;;;;;22.49;100.00;101141.78;2115131;27;20201;-65
2023/08/26 03:28:20;;;;;;;8.40;7.00;;;;;;;22.48;100.00;101154.38;2115240;27;20210;-64
2023/08/26 03:29:20;;;;;;;8.27;7.17;;;;;;;22.49;100.00;101161.56;2115024;28;20289;-65
2023/08/26 03:30:21;;;;;;;7.67;6.83;;;;;;;22.10;100.00;101101.91;2114876;28;20193;-65
2023/08/26 03:31:21;;;;;;;12.47;7.70;;;;;;;22.41;100.00;101157.63;2118463;27;20245;-64
2023/08/26 03:32:21;;;;;;;8.20;7.27;;;;;;;22.42;100.00;101154.28;2121199;27;20178;-64
2023/08/26 03:33:22;;;;;;;10.10;7.47;;;;;;;22.40;100.00;101159.66;2115741;27;20179;-64
2023/08/26 03:34:22;;;;;;;9.77;7.70;;;;;;;22.40;100.00;101154.00;2123883;27;20581;-65
2023/08/26 03:35:23;;;;;;;8.97;7.33;;;;;;;22.44;100.00;101156.59;2115086;28;20182;-64
2023/08/26 03:36:23;;;;;;;8.60;7.30;;;;;;;22.38;100.00;101156.56;2122152;27;20670;-64
2023/08/26 03:37:25;;;;;;;7.97;6.83;;;;;;;22.35;100.00;101151.91;2129886;27;20196;-64
2023/08/26 03:38:25;;;;;;;12.33;7.47;;;;;;;22.36;100.00;101166.81;2124908;27;20196;-64
2023/08/26 03:39:26;;;;;;;10.23;7.27;;;;;;;22.35;100.00;101166.03;2119440;27;20217;-64
2023/08/26 03:40:26;;;;;;;11.17;7.40;;;;;;;22.28;100.00;101168.53;2119816;27;20185;-65
2023/08/26 03:41:26;;;;;;;11.80;7.67;;;;;;;22.23;100.00;101163.63;2122450;27;20204;-65
2023/08/26 03:42:27;;;;;;;10.83;7.63;;;;;;;22.23;100.00;101167.22;2122633;27;20590;-64
2023/08/26 03:43:27;;;;;;;9.73;7.03;;;;;;;22.27;100.00;101167.00;2123868;27;20271;-64
2023/08/26 03:44:28;;;;;;;11.13;7.37;;;;;;;22.22;100.00;101168.47;2122752;27;20197;-64
2023/08/26 03:45:31;;;;;;;10.33;7.30;;;;;;;22.22;100.00;101162.06;2116277;27;20222;-65
2023/08/26 03:46:32;;;;;;;9.03;6.80;;;;;;;22.20;100.00;101161.78;2114976;28;20223;-64
2023/08/26 03:47:33;;;;;;;10.10;7.63;;;;;;;22.22;100.00;101167.72;2114825;28;20459;-64
2023/08/26 03:48:34;;;;;;;8.80;6.93;;;;;;;22.23;100.00;101166.44;2118838;27;20217;-65
2023/08/26 03:49:34;;;;;;;10.93;7.27;;;;;;;22.14;100.00;101152.50;2120744;27;20193;-64
2023/08/26 03:50:34;;;;;;;10.03;7.83;;;;;;;22.25;100.00;101173.13;2116273;27;20185;-65
2023/08/26 03:51:35;;;;;;;9.17;7.13;;;;;;;22.25;100.00;101172.34;2122875;27;20230;-64
2023/08/26 03:52:35;;;;;;;11.63;7.50;;;;;;;22.19;100.00;101171.53;2115251;28;20270;-64
2023/08/26 03:53:36;;;;;;;8.27;7.40;;;;;;;22.22;100.00;101174.13;2114294;28;20186;-64
2023/08/26 03:54:36;;;;;;;8.43;6.97;;;;;;;22.22;100.00;101170.53;2120705;27;20667;-64
2023/08/26 03:55:36;;;;;;;7.93;7.10;;;;;;;22.26;100.00;101176.75;2116538;27;20194;-64
2023/08/26 03:56:37;;;;;;;8.93;7.10;;;;;;;22.25;100.00;101175.16;2118512;27;20250;-64
2023/08/26 03:57:38;;;;;;;10.40;7.10;;;;;;;22.27;100.00;101175.47;2120031;27;20280;-64
2023/08/26 03:58:38;;;;;;;10.53;7.33;;;;;;;22.22;100.00;101173.38;2114799;28;20174;-65
2023/08/26 03:59:39;;;;;;;13.03;7.67;;;;;;;22.26;100.00;101174.69;2114856;28;20199;-64
2023/08/26 04:00:39;;;;;;;8.60;7.60;;;;;;;21.45;100.00;101045.59;2113401;28;20606;-64
2023/08/26 04:01:39;;;;;;;8.53;6.90;;;;;;;22.31;100.00;101173.94;2113695;27;20761;-64
2023/08/26 04:02:40;;;;;;;9.40;7.23;;;;;;;21.68;100.00;101079.22;2114799;27;20205;-64
2023/08/26 04:03:41;;;;;;;9.17;7.07;;;;;;;21.71;100.00;101072.59;2114922;28;20194;-64
2023/08/26 04:04:42;;;;;;;8.83;7.23;;;;;;;22.39;100.00;101174.28;2119581;27;20674;-65
2023/08/26 04:05:43;;;;;;;8.43;6.90;;;;;;;22.32;100.00;101180.38;2119323;27;20622;-65
2023/08/26 04:06:43;;;;;;;8.03;7.23;;;;;;;22.29;100.00;101170.09;2116602;27;20231;-64
2023/08/26 04:07:43;;;;;;;9.50;7.10;;;;;;;22.38;100.00;101181.22;2121064;27;20182;-64
2023/08/26 04:08:45;;;;;;;7.20;6.50;;;;;;;22.18;100.00;101162.31;2114630;27;20206;-64
2023/08/26 04:09:46;;;;;;;10.87;7.40;;;;;;;22.32;100.00;101183.97;2123693;27;20558;-64
2023/08/26 04:10:46;;;;;;;10.13;7.37;;;;;;;22.37;100.00;101185.31;2115298;27;20289;-64
2023/08/26 04:11:46;;;;;;;8.67;7.13;;;;;;;22.12;100.00;101155.06;2113922;28;20190;-64
2023/08/26 04:12:47;;;;;;;9.60;7.03;;;;;;;22.45;100.00;101197.72;2114297;28;20257;-65
2023/08/26 04:13:47;;;;;;;9.87;7.10;;;;;;;22.49;100.00;101203.91;2118925;27;20193;-65
2023/08/26 04:14:48;;;;;;;7.83;6.67;;;;;;;22.47;100.00;101198.00;2123119;27;20233;-65
2023/08/26 04:15:48;;;;;;;8.03;7.10;;;;;;;22.51;100.00;101198.56;2120542;27;20181;-65
2023/08/26 04:16:48;;;;;;;8.80;6.90;;;;;;;22.50;100.00;101194.94;2115504;27;20186;-65
2023/08/26 04:17:49;;;;;;;9.53;7.43;;;;;;;22.58;100.00;101195.28;2123378;27;20209;-65
2023/08/26 04:18:49;;;;;;;13.70;7.37;;;;;;;22.56;100.00;101206.31;2114875;28;20417;-65
2023/08/26 04:19:50;;;;;;;11.63;7.50;;;;;;;22.59;100.00;101197.59;2122051;27;20685;-64
2023/08/26 04:20:52;;;;;;;8.53;7.63;;;;;;;22.63;100.00;101205.84;2116571;27;20269;-65
2023/08/26 04:21:52;;;;;;;10.07;7.23;;;;;;;22.63;100.00;101211.50;2119787;27;20238;-64
2023/08/26 04:22:53;;;;;;;11.80;7.13;;;;;;;22.61;100.00;101214.06;2119025;27;20190;-65
2023/08/26 04:23:53;;;;;;;9.23;7.23;;;;;;;22.61;100.00;101209.16;2117426;27;20202;-64
2023/08/26 04:24:53;;;;;;;13.23;7.80;;;;;;;22.64;100.00;101211.00;2121177;27;20170;-65
2023/08/26 04:26:02;;;;;;;12.03;7.67;;;;;;;22.69;100.00;101212.31;2114092;27;20182;-65
2023/08/26 04:27:03;;;;;;;13.20;8.00;;;;;;;22.73;100.00;101207.22;2114881;27;20544;-64
2023/08/26 04:28:04;;;;;;;11.00;7.43;;;;;;;22.66;100.00;101193.53;2123437;27;20290;-64
2023/08/26 04:29:04;;;;;;;18.70;7.93;;;;;;;22.40;100.00;101147.59;2115225;27;20234;-64
2023/08/26 04:30:05;;;;;;;10.77;6.90;;;;;;;22.80;100.00;101201.88;2114423;28;20201;-64
2023/08/26 04:31:07;;;;;;;11.93;7.40;;;;;;;22.85;100.00;101203.19;2113564;28;20201;-65
2023/08/26 04:32:08;;;;;;;14.37;7.83;;;;;;;22.86;100.00;101197.03;2113997;28;20680;-64
2023/08/26 04:33:08;;;;;;;15.90;7.67;;;;;;;22.84;100.00;101204.47;2114438;28;20572;-65
2023/08/26 04:34:09;;;;;;;11.33;7.80;;;;;;;22.69;100.00;101178.41;2114705;28;20179;-64
2023/08/26 04:35:09;;;;;;;12.43;7.40;;;;;;;22.91;100.00;101210.44;2114425;28;20178;-65
2023/08/26 04:36:09;;;;;;;11.37;7.40;;;;;;;22.94;100.00;101203.78;2114057;28;20181;-64
2023/08/26 04:37:10;;;;;;;10.50;7.37;;;;;;;22.64;100.00;101153.72;2114891;28;20167;-65
2023/08/26 04:38:10;;;;;;;11.77;7.60;;;;;;;22.99;100.00;101208.69;2118734;27;20185;-64
2023/08/26 04:39:11;;;;;;;13.13;7.50;;;;;;;23.03;100.00;101212.03;2123115;27;20192;-65
2023/08/26 04:40:14;;;;;;;12.20;7.17;;;;;;;23.06;100.00;101211.03;2120654;27;20181;-64
2023/08/26 04:41:14;;;;;;;12.63;7.40;;;;;;;22.66;100.00;101134.19;2118363;27;20584;-65
2023/08/26 04:42:15;;;;;;;13.40;7.57;;;;;;;23.16;100.00;101218.03;2114134;27;20190;-65